Time;durP1;ratioP1;P1;durP2;ratioP2;P2;SDS_P1;SDS_P2;PMS_P1;PMS_P2;Temp;Humidity;BMP_temperature;BMP_pressure;BME280_temperature;BME280_humidity;BME280_pressure;Samples;Min_cycle;Max_cycle;Signal;HPM_P1;HPM_P2
2021/09/11 00:01:51;;;;;;;13.45;6.57;;;20.30;76.30;;;;;;5027697;28;20076;-79
2021/09/11 00:04:17;;;;;;;16.08;6.20;;;20.30;76.30;;;;;;5010104;28;20430;-79
2021/09/11 00:06:43;;;;;;;10.02;5.10;;;20.20;76.20;;;;;;5028253;28;20120;-79
2021/09/11 00:09:09;;;;;;;10.85;5.60;;;20.20;76.20;;;;;;5027829;28;20029;-78
2021/09/11 00:11:35;;;;;;;11.65;5.72;;;20.20;76.20;;;;;;5027897;28;20037;-80
2021/09/11 00:14:01;;;;;;;14.43;6.72;;;20.20;76.20;;;;;;5027882;28;20033;-81
2021/09/11 00:16:27;;;;;;;11.50;5.55;;;20.20;76.30;;;;;;5027902;28;20036;-80
2021/09/11 00:18:52;;;;;;;13.73;6.40;;;20.20;76.30;;;;;;5027450;28;20168;-81
2021/09/11 00:21:19;;;;;;;9.43;5.22;;;20.20;76.30;;;;;;4993974;28;20464;-80
2021/09/11 00:23:45;;;;;;;16.45;6.70;;;20.20;76.30;;;;;;5027575;28;20101;-80
2021/09/11 00:26:11;;;;;;;15.23;5.75;;;20.20;76.40;;;;;;5027698;28;20199;-80
2021/09/11 00:28:37;;;;;;;11.35;5.25;;;20.10;76.20;;;;;;5033019;28;20127;-79
2021/09/11 00:31:03;;;;;;;9.82;5.32;;;20.10;76.30;;;;;;5011755;28;20488;-79
2021/09/11 00:33:30;;;;;;;11.15;5.70;;;20.10;76.30;;;;;;5047580;28;20340;-81
2021/09/11 00:35:56;;;;;;;10.90;5.53;;;20.10;76.30;;;;;;5047192;28;20041;-80
2021/09/11 00:38:22;;;;;;;13.95;6.43;;;20.10;76.40;;;;;;5044024;28;20068;-81
2021/09/11 00:40:48;;;;;;;14.32;6.05;;;20.10;76.40;;;;;;5027128;28;20036;-80
2021/09/11 00:43:21;;;;;;;10.68;5.80;;;20.10;76.40;;;;;;5027722;28;20044;-80
2021/09/11 00:45:48;;;;;;;13.80;5.55;;;20.10;76.50;;;;;;5027442;28;20123;-80
2021/09/11 00:48:14;;;;;;;18.25;6.43;;;20.10;76.50;;;;;;5026800;28;20046;-79
2021/09/11 00:50:40;;;;;;;13.63;6.28;;;20.10;76.50;;;;;;5027147;28;20353;-80
2021/09/11 00:53:05;;;;;;;12.45;6.25;;;20.10;76.50;;;;;;5026910;28;20453;-79
2021/09/11 00:55:32;;;;;;;14.10;6.45;;;20.10;76.60;;;;;;5009233;28;20048;-80
2021/09/11 00:57:59;;;;;;;13.77;6.43;;;20.10;76.60;;;;;;5027318;28;20074;-78
2021/09/11 01:00:25;;;;;;;14.43;5.57;;;20.00;76.40;;;;;;5008646;28;20452;-81
2021/09/11 01:02:50;;;;;;;17.45;6.13;;;20.10;76.60;;;;;;5011387;28;20080;-78
2021/09/11 01:05:17;;;;;;;10.65;6.05;;;20.00;76.40;;;;;;5028516;28;20132;-80
2021/09/11 01:07:45;;;;;;;11.38;5.72;;;20.00;76.50;;;;;;5028594;28;20395;-80
2021/09/11 01:10:11;;;;;;;14.27;6.43;;;20.00;76.50;;;;;;5028237;28;20021;-79
2021/09/11 01:12:39;;;;;;;13.93;5.63;;;20.00;76.50;;;;;;5009187;28;20417;-80
2021/09/11 01:15:08;;;;;;;15.57;6.05;;;20.00;76.60;;;;;;5013568;28;20035;-80
2021/09/11 01:17:34;;;;;;;11.93;5.43;;;20.00;76.60;;;;;;5022955;28;20495;-80
2021/09/11 01:20:01;;;;;;;13.27;5.43;;;20.00;76.60;;;;;;5011636;28;20491;-79
2021/09/11 01:22:26;;;;;;;13.55;6.15;;;19.90;76.40;;;;;;5008418;28;20026;-80
2021/09/11 01:24:58;;;;;;;14.35;5.40;;;19.90;76.50;;;;;;5008522;28;20041;-80
2021/09/11 01:27:25;;;;;;;12.35;6.28;;;19.90;76.60;;;;;;5008485;28;20028;-80
2021/09/11 01:30:12;;;;;;;9.45;4.97;;;19.90;76.50;;;;;;5008042;28;20033;-79
2021/09/11 01:32:39;;;;;;;11.93;5.65;;;19.90;76.60;;;;;;5019514;28;20091;-79
2021/09/11 01:35:06;;;;;;;10.70;5.45;;;19.90;76.60;;;;;;4990630;28;20048;-80
2021/09/11 01:37:32;;;;;;;16.30;7.22;;;19.90;76.60;;;;;;5007738;28;20038;-80
2021/09/11 01:39:58;;;;;;;15.57;6.18;;;19.80;76.50;;;;;;5024025;28;20025;-79
2021/09/11 01:42:27;;;;;;;9.60;5.38;;;19.80;76.60;;;;;;5027214;28;20120;-79
2021/09/11 01:44:57;;;;;;;11.13;5.55;;;19.80;76.60;;;;;;5009481;28;20128;-80
2021/09/11 01:47:24;;;;;;;17.05;6.07;;;19.80;76.60;;;;;;5021896;28;20156;-79
2021/09/11 01:49:50;;;;;;;13.32;5.72;;;19.80;76.70;;;;;;5024702;28;20038;-80
2021/09/11 01:52:16;;;;;;;11.65;5.07;;;19.80;76.70;;;;;;5009456;28;20470;-80
2021/09/11 01:54:42;;;;;;;11.93;6.07;;;19.80;76.70;;;;;;4993149;28;20028;-80
2021/09/11 01:57:12;;;;;;;12.25;5.88;;;19.80;76.80;;;;;;4992090;28;20056;-81
2021/09/11 01:59:39;;;;;;;15.32;6.40;;;19.80;76.80;;;;;;5010042;28;20033;-81
2021/09/11 02:02:06;;;;;;;12.23;5.28;;;19.70;76.60;;;;;;4993266;28;20022;-80
2021/09/11 02:04:33;;;;;;;12.15;5.70;;;19.80;76.90;;;;;;4992568;28;20034;-80
2021/09/11 02:07:01;;;;;;;13.98;5.82;;;19.70;76.70;;;;;;4992154;28;20049;-80
2021/09/11 02:09:28;;;;;;;15.30;5.72;;;19.70;76.70;;;;;;5009074;28;20123;-78
2021/09/11 02:11:54;;;;;;;12.13;5.75;;;19.70;76.80;;;;;;4992483;28;20029;-79
2021/09/11 02:14:20;;;;;;;15.00;6.47;;;19.70;76.80;;;;;;5010252;28;20101;-81
2021/09/11 02:16:46;;;;;;;12.50;5.43;;;19.70;76.80;;;;;;5010086;28;20511;-80
2021/09/11 02:19:12;;;;;;;15.07;5.85;;;19.70;76.90;;;;;;5028550;28;20052;-79
2021/09/11 02:21:38;;;;;;;16.88;7.25;;;19.60;76.70;;;;;;5029552;28;20031;-80
2021/09/11 02:24:05;;;;;;;9.60;6.15;;;19.60;76.70;;;;;;5029844;28;20035;-80
2021/09/11 02:26:31;;;;;;;14.35;5.95;;;19.60;76.80;;;;;;5012032;28;20462;-79
2021/09/11 02:28:57;;;;;;;11.25;6.05;;;19.60;76.80;;;;;;4996283;28;20056;-79
2021/09/11 02:31:23;;;;;;;13.77;6.43;;;19.60;76.80;;;;;;5030479;28;20323;-80
2021/09/11 02:33:49;;;;;;;11.45;5.72;;;19.60;76.90;;;;;;5012383;28;20044;-79
2021/09/11 02:36:16;;;;;;;11.00;5.45;;;19.50;76.70;;;;;;5012239;28;20712;-78
2021/09/11 02:38:43;;;;;;;13.05;5.80;;;19.50;76.70;;;;;;4996029;28;20087;-79
2021/09/11 02:41:09;;;;;;;14.35;6.38;;;19.50;76.80;;;;;;4995528;28;20095;-79
2021/09/11 02:43:35;;;;;;;10.98;6.47;;;19.50;76.80;;;;;;4995414;28;20052;-79
2021/09/11 02:46:01;;;;;;;11.98;6.28;;;19.50;76.80;;;;;;5029442;28;20184;-79
2021/09/11 02:48:28;;;;;;;10.13;5.53;;;19.50;76.80;;;;;;5029585;28;20086;-81
2021/09/11 02:50:54;;;;;;;14.45;5.80;;;19.50;76.90;;;;;;5028474;28;20040;-79
2021/09/11 02:53:19;;;;;;;14.27;6.20;;;19.50;76.90;;;;;;4995289;28;20029;-81
2021/09/11 02:55:46;;;;;;;9.40;5.25;;;19.50;76.90;;;;;;5014632;28;20437;-79
2021/09/11 02:58:12;;;;;;;12.23;5.68;;;19.50;76.90;;;;;;5033657;28;20033;-79
2021/09/11 03:00:38;;;;;;;12.70;6.25;;;19.50;76.90;;;;;;5015682;28;20036;-80
2021/09/11 03:03:04;;;;;;;19.33;6.25;;;19.40;76.70;;;;;;5033595;28;20025;-79
2021/09/11 03:05:30;;;;;;;13.70;5.88;;;19.40;76.80;;;;;;5033594;28;20030;-79
2021/09/11 03:07:56;;;;;;;8.98;5.47;;;19.40;76.80;;;;;;5031606;28;20094;-80
2021/09/11 03:10:22;;;;;;;13.02;5.90;;;19.40;76.80;;;;;;5015400;28;20057;-80
2021/09/11 03:12:49;;;;;;;11.25;5.80;;;19.40;76.90;;;;;;5015818;28;20037;-79
2021/09/11 03:15:15;;;;;;;14.50;5.95;;;19.40;76.80;;;;;;5015347;28;20334;-80
2021/09/11 03:17:41;;;;;;;9.30;5.90;;;19.40;76.90;;;;;;5033611;28;20037;-79
2021/09/11 03:20:07;;;;;;;13.93;6.68;;;19.40;76.90;;;;;;5015433;28;20056;-77
2021/09/11 03:22:34;;;;;;;11.20;6.18;;;19.40;76.90;;;;;;5014956;28;20513;-79
2021/09/11 03:25:00;;;;;;;14.63;6.25;;;19.40;76.90;;;;;;5032881;28;20542;-79
2021/09/11 03:27:26;;;;;;;9.98;6.32;;;19.30;76.80;;;;;;5015817;28;20029;-79
2021/09/11 03:29:52;;;;;;;9.45;5.80;;;19.30;76.80;;;;;;5015534;28;20495;-79
2021/09/11 03:32:18;;;;;;;12.07;5.95;;;19.30;76.80;;;;;;5032993;28;20033;-80
2021/09/11 03:34:44;;;;;;;11.57;6.47;;;19.30;76.90;;;;;;5032778;28;20033;-79
2021/09/11 03:37:10;;;;;;;10.43;5.43;;;19.30;76.90;;;;;;5032728;28;20139;-80
2021/09/11 03:39:36;;;;;;;12.05;6.63;;;19.30;76.90;;;;;;4999241;28;20100;-78
2021/09/11 03:42:02;;;;;;;12.88;5.68;;;19.30;76.90;;;;;;5031761;28;20025;-79
2021/09/11 03:44:28;;;;;;;13.55;5.90;;;19.20;76.80;;;;;;5014886;28;20151;-79
2021/09/11 03:46:54;;;;;;;11.88;5.75;;;19.30;76.90;;;;;;5028845;28;20469;-80
2021/09/11 03:49:20;;;;;;;13.27;5.88;;;19.30;76.90;;;;;;5007790;28;20026;-80
2021/09/11 03:51:46;;;;;;;8.00;5.32;;;19.20;76.80;;;;;;5010660;28;20088;-80
2021/09/11 03:54:12;;;;;;;12.35;6.10;;;19.20;76.80;;;;;;5014892;28;20029;-81
2021/09/11 03:56:39;;;;;;;10.43;6.15;;;19.20;76.80;;;;;;5015050;28;20128;-81
2021/09/11 03:59:05;;;;;;;10.25;6.43;;;19.20;76.80;;;;;;4998507;28;20036;-82
2021/09/11 04:01:31;;;;;;;14.73;6.63;;;19.20;76.80;;;;;;5032383;28;20068;-81
2021/09/11 04:03:57;;;;;;;9.85;5.50;;;19.20;76.80;;;;;;5014257;28;20061;-81
2021/09/11 04:06:23;;;;;;;11.55;6.10;;;19.20;76.80;;;;;;5032082;28;20382;-79
2021/09/11 04:08:49;;;;;;;11.60;5.90;;;19.20;76.80;;;;;;5014608;28;20033;-82
2021/09/11 04:11:15;;;;;;;11.95;6.18;;;19.20;76.90;;;;;;5014596;28;20033;-81
2021/09/11 04:13:41;;;;;;;12.27;6.88;;;19.20;76.90;;;;;;4997708;28;20083;-82
2021/09/11 04:16:07;;;;;;;13.15;6.70;;;19.20;76.90;;;;;;5017276;28;20397;-80
2021/09/11 04:18:33;;;;;;;11.05;6.53;;;19.20;76.90;;;;;;5014503;28;20069;-81
2021/09/11 04:20:59;;;;;;;10.32;6.18;;;19.10;76.70;;;;;;4998009;28;20484;-82
2021/09/11 04:23:25;;;;;;;13.02;6.28;;;19.20;76.90;;;;;;5014409;28;20056;-81
2021/09/11 04:25:51;;;;;;;9.90;5.90;;;19.10;76.70;;;;;;4997733;28;20068;-80
2021/09/11 04:28:17;;;;;;;9.93;6.25;;;19.10;76.80;;;;;;4995721;28;20445;-78
2021/09/11 04:30:43;;;;;;;9.82;6.75;;;19.10;76.80;;;;;;5005068;28;20129;-79
2021/09/11 04:33:09;;;;;;;6.80;5.93;;;19.10;76.90;;;;;;5016409;28;20047;-80
2021/09/11 04:35:35;;;;;;;15.40;6.13;;;19.10;76.90;;;;;;5023190;28;20035;-79
2021/09/11 04:38:01;;;;;;;10.38;6.35;;;19.10;76.90;;;;;;5030905;28;20033;-80
2021/09/11 04:40:28;;;;;;;12.68;5.95;;;19.10;76.90;;;;;;5009700;28;20489;-78
2021/09/11 04:42:55;;;;;;;11.93;6.55;;;19.10;76.90;;;;;;4994086;28;20030;-81
2021/09/11 04:45:22;;;;;;;11.50;6.43;;;19.10;76.90;;;;;;4994952;28;20033;-78
2021/09/11 04:47:48;;;;;;;9.23;6.75;;;19.10;77.00;;;;;;4992371;28;20049;-83
2021/09/11 04:50:14;;;;;;;11.43;6.35;;;19.00;76.80;;;;;;5017091;28;20040;-80
2021/09/11 04:52:40;;;;;;;12.13;7.20;;;19.00;76.80;;;;;;4990975;28;20045;-82
2021/09/11 04:55:07;;;;;;;13.68;6.78;;;19.00;76.90;;;;;;4991108;28;20121;-81
2021/09/11 04:57:34;;;;;;;12.35;6.55;;;19.00;76.80;;;;;;5011318;28;20121;-81
2021/09/11 05:00:01;;;;;;;10.65;6.53;;;19.00;76.90;;;;;;5010646;28;20476;-82
2021/09/11 05:02:27;;;;;;;11.95;7.07;;;19.00;76.90;;;;;;5008972;28;20022;-79
2021/09/11 05:04:54;;;;;;;11.13;6.13;;;19.00;76.90;;;;;;5016301;28;20046;-81
2021/09/11 05:07:20;;;;;;;8.93;5.93;;;19.00;76.90;;;;;;5006324;28;20026;-81
2021/09/11 05:09:46;;;;;;;8.88;6.60;;;19.00;76.90;;;;;;5012844;28;20036;-79
2021/09/11 05:12:12;;;;;;;6.95;6.20;;;19.00;76.90;;;;;;5010586;28;20029;-79
2021/09/11 05:14:38;;;;;;;10.40;6.45;;;19.00;76.90;;;;;;5011943;28;20116;-80
2021/09/11 05:17:04;;;;;;;9.25;5.85;;;18.90;76.80;;;;;;5024588;28;20148;-79
2021/09/11 05:19:30;;;;;;;9.10;6.63;;;18.90;76.80;;;;;;5026300;28;20485;-78
2021/09/11 05:21:56;;;;;;;9.02;6.35;;;18.90;76.90;;;;;;5026394;28;20116;-80
2021/09/11 05:24:22;;;;;;;9.02;6.47;;;18.90;76.90;;;;;;5006431;28;20128;-78
2021/09/11 05:26:48;;;;;;;9.15;6.05;;;18.90;76.90;;;;;;5007613;28;20456;-83
2021/09/11 05:29:14;;;;;;;9.90;6.10;;;18.90;76.90;;;;;;5007842;28;20395;-79
2021/09/11 05:31:40;;;;;;;11.73;6.47;;;18.90;76.90;;;;;;5005888;28;20033;-81
2021/09/11 05:34:06;;;;;;;13.13;7.03;;;18.90;76.90;;;;;;5018232;28;20075;-85
2021/09/11 05:36:34;;;;;;;13.20;6.68;;;18.90;77.00;;;;;;5007725;28;20025;-78
2021/09/11 05:39:00;;;;;;;11.77;6.90;;;18.90;77.00;;;;;;5005236;28;20039;-84
2021/09/11 05:41:26;;;;;;;9.77;6.13;;;18.90;77.00;;;;;;5012277;28;20476;-83
2021/09/11 05:43:52;;;;;;;13.60;7.07;;;18.90;77.00;;;;;;5013034;28;20029;-85
2021/09/11 05:46:18;;;;;;;12.02;6.35;;;18.80;76.90;;;;;;5009560;28;20100;-82
2021/09/11 05:48:44;;;;;;;8.50;5.60;;;18.90;77.00;;;;;;5005198;28;20575;-80
2021/09/11 05:51:10;;;;;;;10.80;6.55;;;18.80;76.90;;;;;;5016784;28;20033;-86
2021/09/11 05:53:36;;;;;;;14.10;6.05;;;18.80;76.90;;;;;;5005152;28;20033;-82
2021/09/11 05:56:02;;;;;;;11.15;5.88;;;18.80;76.90;;;;;;5001880;28;20044;-79
2021/09/11 05:58:29;;;;;;;11.68;6.55;;;18.80;77.00;;;;;;5014644;28;20021;-84
2021/09/11 06:00:56;;;;;;;9.88;6.13;;;18.80;77.00;;;;;;5026649;28;20037;-81
2021/09/11 06:03:22;;;;;;;13.68;7.57;;;18.80;77.00;;;;;;5028522;28;20052;-82
2021/09/11 06:05:48;;;;;;;14.07;9.15;;;18.90;77.20;;;;;;5029217;28;20033;-87
2021/09/11 06:08:14;;;;;;;18.08;7.82;;;18.90;77.50;;;;;;5028646;28;20040;-85
2021/09/11 06:10:40;;;;;;;15.15;8.77;;;18.80;77.60;;;;;;5029186;28;20111;-86
2021/09/11 06:13:06;;;;;;;11.45;7.38;;;18.90;77.80;;;;;;5003474;28;20490;-85
2021/09/11 06:15:33;;;;;;;12.25;8.00;;;18.90;77.90;;;;;;5008928;28;20371;-82
2021/09/11 06:17:59;;;;;;;18.10;7.63;;;18.90;77.90;;;;;;5013863;28;20448;-87
2021/09/11 06:20:25;;;;;;;11.23;7.30;;;18.90;77.90;;;;;;5014647;28;20034;-81
2021/09/11 06:22:50;;;;;;;11.07;7.20;;;18.90;77.90;;;;;;5026650;28;20057;-86
2021/09/11 06:25:16;;;;;;;13.65;8.00;;;19.00;78.00;;;;;;5008650;28;20103;-83
2021/09/11 06:27:43;;;;;;;12.20;7.75;;;19.00;78.00;;;;;;4992652;28;20044;-81
2021/09/11 06:30:10;;;;;;;13.82;7.57;;;19.00;78.00;;;;;;5007895;28;20115;-85
2021/09/11 06:32:37;;;;;;;17.00;7.57;;;19.00;78.00;;;;;;5008447;28;20116;-80
2021/09/11 06:35:05;;;;;;;14.30;9.00;;;19.00;77.90;;;;;;5008557;28;20045;-79
2021/09/11 06:37:32;;;;;;;17.63;8.77;;;19.00;78.00;;;;;;5007773;28;20076;-81
2021/09/11 06:39:58;;;;;;;14.23;8.80;;;19.00;78.40;;;;;;5009113;28;20033;-87
2021/09/11 06:42:25;;;;;;;16.05;8.20;;;19.00;78.50;;;;;;5005787;28;20032;-87
2021/09/11 06:44:50;;;;;;;14.07;8.13;;;19.00;78.60;;;;;;5006077;28;20528;-86
2021/09/11 06:47:17;;;;;;;15.75;8.68;;;19.00;78.60;;;;;;5020174;28;20136;-82
2021/09/11 06:49:43;;;;;;;13.45;7.25;;;19.10;78.70;;;;;;5015760;28;20083;-83
2021/09/11 06:52:10;;;;;;;12.25;7.72;;;19.10;78.70;;;;;;5008419;28;20033;-83
2021/09/11 06:54:36;;;;;;;12.27;7.28;;;19.10;78.70;;;;;;5017281;28;20029;-82
2021/09/11 06:57:03;;;;;;;16.25;7.80;;;19.10;78.60;;;;;;5005329;28;20033;-80
2021/09/11 06:59:29;;;;;;;14.30;7.07;;;19.20;78.70;;;;;;5002109;28;20382;-82
2021/09/11 07:01:56;;;;;;;13.77;7.80;;;19.20;78.60;;;;;;4988002;28;20080;-78
2021/09/11 07:04:22;;;;;;;11.73;7.07;;;19.20;79.10;;;;;;5023852;28;20025;-81
2021/09/11 07:06:48;;;;;;;10.70;6.63;;;19.20;78.50;;;;;;5016286;28;20056;-85
2021/09/11 07:09:14;;;;;;;15.45;6.93;;;19.20;78.40;;;;;;4989842;28;20022;-81
2021/09/11 07:11:40;;;;;;;12.10;6.97;;;19.30;78.50;;;;;;5015340;28;20069;-83
2021/09/11 07:14:06;;;;;;;14.40;7.18;;;19.30;78.40;;;;;;5024187;28;20038;-83
2021/09/11 07:16:32;;;;;;;14.50;6.43;;;19.30;78.30;;;;;;5015753;28;20546;-81
2021/09/11 07:18:58;;;;;;;13.45;6.75;;;19.40;78.40;;;;;;5006499;28;20037;-93
2021/09/11 07:21:24;;;;;;;12.63;6.95;;;19.40;78.40;;;;;;5008422;28;20357;-77
2021/09/11 07:23:51;;;;;;;12.90;6.85;;;19.50;78.50;;;;;;5014821;28;20672;-85
2021/09/11 07:26:20;;;;;;;9.88;6.40;;;19.50;78.40;;;;;;5025856;28;20536;-86
2021/09/11 07:28:48;;;;;;;10.20;6.90;;;19.60;78.40;;;;;;5026891;28;20462;-85
2021/09/11 07:31:14;;;;;;;10.07;6.43;;;19.70;78.50;;;;;;4992730;28;20358;-83
2021/09/11 07:33:40;;;;;;;10.55;6.38;;;19.80;78.40;;;;;;5008490;28;20030;-88
2021/09/11 07:36:06;;;;;;;10.60;6.70;;;19.80;78.20;;;;;;5008906;28;20076;-85
2021/09/11 07:38:33;;;;;;;16.10;7.07;;;19.80;78.20;;;;;;5004916;28;20030;-80
2021/09/11 07:41:00;;;;;;;12.57;6.55;;;19.90;78.60;;;;;;5008460;28;20078;-83
2021/09/11 07:43:26;;;;;;;14.13;6.63;;;19.90;78.70;;;;;;5006783;28;20480;-84
2021/09/11 07:45:52;;;;;;;16.25;6.97;;;20.00;78.70;;;;;;5014015;28;20037;-84
2021/09/11 07:48:18;;;;;;;11.13;6.80;;;20.00;78.60;;;;;;5017727;28;20231;-82
2021/09/11 07:50:44;;;;;;;10.30;6.32;;;20.10;78.60;;;;;;5011973;28;20029;-82
2021/09/11 07:53:10;;;;;;;16.73;6.75;;;20.10;78.50;;;;;;5005093;28;20031;-85
2021/09/11 07:55:36;;;;;;;8.07;5.78;;;20.10;78.50;;;;;;5050210;28;20029;-82
2021/09/11 07:58:02;;;;;;;10.55;6.25;;;20.10;78.40;;;;;;5045075;28;20488;-85
2021/09/11 08:00:28;;;;;;;15.57;6.55;;;20.20;78.50;;;;;;5012438;28;20080;-85
2021/09/11 08:02:55;;;;;;;9.00;6.03;;;20.20;78.30;;;;;;5029051;28;20361;-86
2021/09/11 08:05:22;;;;;;;12.60;6.50;;;20.20;78.20;;;;;;5011315;28;20037;-85
2021/09/11 08:07:51;;;;;;;11.13;6.65;;;20.20;78.10;;;;;;5020248;28;20485;-87
2021/09/11 08:10:18;;;;;;;10.20;5.35;;;20.20;78.00;;;;;;4995424;28;20473;-85
2021/09/11 08:12:46;;;;;;;9.05;5.43;;;20.20;78.00;;;;;;5013810;28;20026;-81
2021/09/11 08:15:15;;;;;;;12.52;5.07;;;20.30;78.00;;;;;;5028446;28;20026;-85
2021/09/11 08:17:42;;;;;;;9.93;4.80;;;20.30;77.90;;;;;;5011104;28;20116;-86
2021/09/11 08:20:09;;;;;;;14.95;5.63;;;20.30;77.80;;;;;;5009931;28;20152;-79
2021/09/11 08:22:35;;;;;;;8.13;4.88;;;20.40;77.90;;;;;;5011151;28;20052;-81
2021/09/11 08:25:02;;;;;;;12.70;5.43;;;20.30;77.60;;;;;;5009244;28;20034;-82
2021/09/11 08:27:30;;;;;;;6.25;4.90;;;20.40;77.70;;;;;;4993906;28;20089;-81
2021/09/11 08:29:57;;;;;;;8.07;4.53;;;20.40;77.60;;;;;;5010486;28;20861;-81
2021/09/11 08:32:23;;;;;;;14.00;5.53;;;20.40;77.50;;;;;;4997912;28;20045;-83
2021/09/11 08:34:52;;;;;;;12.40;4.15;;;20.50;77.50;;;;;;5031120;28;20044;-88
2021/09/11 08:37:18;;;;;;;19.55;5.13;;;20.60;77.50;;;;;;5015876;28;20041;-89
2021/09/11 08:39:45;;;;;;;12.95;4.95;;;20.70;77.40;;;;;;5012999;28;20029;-93
2021/09/11 08:42:11;;;;;;;9.25;4.70;;;20.80;77.30;;;;;;4994284;28;20037;-89
2021/09/11 08:44:38;;;;;;;18.92;5.70;;;20.90;77.20;;;;;;4993559;28;20025;-92
2021/09/11 08:47:06;;;;;;;15.40;5.15;;;21.00;77.10;;;;;;5010219;28;20523;-95
2021/09/11 08:49:32;;;;;;;13.43;5.20;;;21.10;76.90;;;;;;5028402;28;20313;-84
2021/09/11 08:52:03;;;;;;;13.63;4.47;;;21.20;76.80;;;;;;5030037;28;20550;-87
2021/09/11 08:54:29;;;;;;;11.68;5.05;;;21.20;76.50;;;;;;4993964;28;20087;-84
2021/09/11 08:56:55;;;;;;;16.73;5.03;;;21.20;76.40;;;;;;4992384;28;20536;-86
2021/09/11 08:59:24;;;;;;;11.02;5.20;;;21.40;76.60;;;;;;4990967;28;20464;-86
2021/09/11 09:02:04;;;;;;;11.75;4.68;;;21.50;76.50;;;;;;5010023;28;20037;-84
2021/09/11 09:04:44;;;;;;;11.32;5.28;;;21.70;76.30;;;;;;5008598;28;20103;-85
2021/09/11 09:07:11;;;;;;;11.55;5.07;;;21.80;76.20;;;;;;5010925;28;20042;-84
2021/09/11 09:09:41;;;;;;;7.70;4.53;;;21.90;76.00;;;;;;5029185;28;20036;-83
2021/09/11 09:12:14;;;;;;;11.15;5.57;;;22.10;76.00;;;;;;4994648;28;20037;-83
2021/09/11 09:14:58;;;;;;;9.70;4.40;;;22.20;75.70;;;;;;5011171;28;20032;-89
2021/09/11 09:17:41;;;;;;;13.00;4.68;;;22.30;75.60;;;;;;5023804;28;20037;-80
2021/09/11 09:20:14;;;;;;;9.63;5.15;;;22.40;75.30;;;;;;5032821;28;20033;-84
2021/09/11 09:22:42;;;;;;;10.02;4.50;;;22.50;75.20;;;;;;5019897;28;20029;-81
2021/09/11 09:25:32;;;;;;;13.25;5.97;;;22.50;75.00;;;;;;5013113;28;20037;-82
2021/09/11 09:28:01;;;;;;;10.40;4.80;;;22.60;74.70;;;;;;5029427;28;20030;-81
2021/09/11 09:30:45;;;;;;;10.13;4.85;;;22.70;74.50;;;;;;5001600;28;20029;-83
2021/09/11 09:33:23;;;;;;;10.98;4.88;;;22.80;74.20;;;;;;5011166;28;20036;-83
2021/09/11 09:35:50;;;;;;;14.95;5.60;;;22.90;74.10;;;;;;4995374;28;20044;-82
2021/09/11 09:38:16;;;;;;;7.75;4.25;;;23.00;74.00;;;;;;5028325;28;20557;-82
2021/09/11 09:40:50;;;;;;;13.10;5.25;;;23.00;73.70;;;;;;5028211;28;20359;-82
2021/09/11 09:43:42;;;;;;;11.43;4.55;;;23.00;73.30;;;;;;5010089;28;20247;-82
2021/09/11 09:46:19;;;;;;;10.50;4.85;;;23.10;73.20;;;;;;4992857;28;20105;-82
2021/09/11 09:48:48;;;;;;;7.57;3.95;;;23.10;72.90;;;;;;5004200;28;20694;-82
2021/09/11 09:51:20;;;;;;;11.07;4.65;;;23.10;72.80;;;;;;5028912;28;20029;-82
2021/09/11 09:53:48;;;;;;;8.00;4.75;;;23.10;72.50;;;;;;5015519;28;20145;-83
2021/09/11 09:56:14;;;;;;;13.48;4.68;;;23.10;72.30;;;;;;4992817;28;20196;-83
2021/09/11 09:58:40;;;;;;;10.07;4.68;;;23.10;72.20;;;;;;5009320;28;20033;-83
2021/09/11 10:01:07;;;;;;;10.57;5.32;;;23.10;72.10;;;;;;5027518;28;20031;-83
2021/09/11 10:03:33;;;;;;;12.63;4.72;;;23.10;71.90;;;;;;5027300;28;20041;-81
2021/09/11 10:06:08;;;;;;;8.20;4.07;;;23.10;71.80;;;;;;5008573;28;20493;-84
2021/09/11 10:08:43;;;;;;;8.57;4.53;;;23.10;71.60;;;;;;5008951;28;20048;-80
2021/09/11 10:11:13;;;;;;;7.53;4.68;;;23.10;71.60;;;;;;5009221;28;20101;-81
2021/09/11 10:13:39;;;;;;;10.63;4.07;;;23.20;71.60;;;;;;5021454;28;20171;-81
2021/09/11 10:16:09;;;;;;;9.63;4.35;;;23.30;71.50;;;;;;5012833;28;20025;-82
2021/09/11 10:18:35;;;;;;;7.05;3.92;;;23.30;71.20;;;;;;5031420;28;20033;-81
2021/09/11 10:21:14;;;;;;;10.27;4.28;;;23.30;71.00;;;;;;4992931;28;20236;-79
2021/09/11 10:24:00;;;;;;;7.53;3.83;;;23.30;70.70;;;;;;5009126;28;20041;-81
2021/09/11 10:26:50;;;;;;;8.70;4.07;;;23.40;70.70;;;;;;5007070;28;20194;-81
2021/09/11 10:29:34;;;;;;;9.65;4.07;;;23.40;70.60;;;;;;5023791;28;20052;-80
2021/09/11 10:32:20;;;;;;;6.25;4.20;;;23.50;70.70;;;;;;5028550;28;20033;-81
2021/09/11 10:34:56;;;;;;;6.68;3.95;;;23.60;70.60;;;;;;4972794;28;20030;-80
2021/09/11 10:37:31;;;;;;;8.77;3.70;;;23.70;70.40;;;;;;4989404;28;20480;-82
2021/09/11 10:40:25;;;;;;;11.23;4.72;;;23.70;70.30;;;;;;5006993;28;20344;-80
2021/09/11 10:43:28;;;;;;;8.57;3.88;;;23.70;70.20;;;;;;4994904;28;20036;-81
2021/09/11 10:45:54;;;;;;;6.43;4.28;;;23.80;70.40;;;;;;5026766;28;20038;-81
2021/09/11 10:48:33;;;;;;;7.75;3.97;;;23.80;70.40;;;;;;4998289;28;20104;-83
2021/09/11 10:51:21;;;;;;;5.93;3.88;;;23.80;70.00;;;;;;5008287;28;20033;-80
2021/09/11 10:54:09;;;;;;;9.60;3.85;;;23.90;70.10;;;;;;5026090;28;20465;-81
2021/09/11 10:56:47;;;;;;;7.78;4.22;;;23.90;69.90;;;;;;5025991;28;20096;-83
2021/09/11 10:59:16;;;;;;;9.65;4.13;;;23.90;69.80;;;;;;5008421;28;20034;-82
2021/09/11 11:02:09;;;;;;;10.48;4.40;;;24.00;69.90;;;;;;5008148;28;20493;-81
2021/09/11 11:04:37;;;;;;;7.38;3.92;;;24.10;69.80;;;;;;5025680;28;20033;-81
2021/09/11 11:07:06;;;;;;;9.52;3.60;;;24.20;69.80;;;;;;5026546;28;20099;-79
2021/09/11 11:09:45;;;;;;;6.93;3.25;;;24.30;69.60;;;;;;4993192;28;20104;-79
2021/09/11 11:12:12;;;;;;;7.85;3.85;;;24.40;69.10;;;;;;5007333;28;20030;-79
2021/09/11 11:14:45;;;;;;;5.93;3.20;;;24.60;69.10;;;;;;4991807;28;20079;-79
2021/09/11 11:17:16;;;;;;;9.68;3.47;;;24.70;68.70;;;;;;5029658;28;20033;-78
2021/09/11 11:19:44;;;;;;;5.50;2.92;;;24.90;68.70;;;;;;5010910;28;20033;-78
2021/09/11 11:22:16;;;;;;;6.60;3.40;;;25.00;68.10;;;;;;4985677;28;20052;-81
2021/09/11 11:24:45;;;;;;;6.80;2.97;;;25.10;67.70;;;;;;5011921;28;20048;-78
2021/09/11 11:27:18;;;;;;;4.75;2.80;;;25.10;67.30;;;;;;5030119;28;20048;-82
2021/09/11 11:29:45;;;;;;;3.90;2.85;;;25.20;67.00;;;;;;4995573;28;20033;-82
2021/09/11 11:32:11;;;;;;;4.25;2.92;;;25.20;66.70;;;;;;4996911;28;20041;-84
2021/09/11 11:34:38;;;;;;;4.40;2.90;;;25.30;66.40;;;;;;5013566;28;20481;-84
2021/09/11 11:37:09;;;;;;;6.30;2.63;;;25.40;66.10;;;;;;4996543;28;20025;-90
2021/09/11 11:39:38;;;;;;;4.30;2.55;;;25.50;65.80;;;;;;5030729;28;20065;-84
2021/09/11 11:42:16;;;;;;;5.18;2.80;;;25.50;65.60;;;;;;5031101;28;20044;-84
2021/09/11 11:44:44;;;;;;;6.57;2.88;;;25.60;65.60;;;;;;4993696;28;20285;-82
2021/09/11 11:47:28;;;;;;;6.07;2.70;;;25.60;65.40;;;;;;5001897;28;20538;-88
2021/09/11 11:49:55;;;;;;;5.03;2.63;;;25.70;65.30;;;;;;5028709;28;20048;-83
2021/09/11 11:52:22;;;;;;;4.45;2.70;;;25.80;65.30;;;;;;5025722;28;20144;-81
2021/09/11 11:54:49;;;;;;;3.15;2.40;;;25.90;65.10;;;;;;5041378;28;20075;-80
2021/09/11 11:57:21;;;;;;;6.15;2.40;;;25.90;64.90;;;;;;5033332;28;20086;-84
2021/09/11 11:59:58;;;;;;;6.80;2.30;;;26.00;64.40;;;;;;5014617;28;20110;-82
2021/09/11 12:02:33;;;;;;;6.10;2.80;;;26.00;64.10;;;;;;5012157;28;20030;-82
2021/09/11 12:05:11;;;;;;;6.45;2.55;;;26.10;63.80;;;;;;4996676;28;20025;-80
2021/09/11 12:07:37;;;;;;;4.32;2.42;;;26.10;63.20;;;;;;5012078;28;20051;-82
2021/09/11 12:10:04;;;;;;;6.72;3.03;;;26.20;63.20;;;;;;4995582;28;20053;-82
2021/09/11 12:12:52;;;;;;;6.78;3.10;;;26.30;63.00;;;;;;4995673;28;20037;-81
2021/09/11 12:15:24;;;;;;;5.60;3.55;;;26.40;62.60;;;;;;5013008;28;20029;-82
2021/09/11 12:17:58;;;;;;;6.03;3.22;;;26.40;62.40;;;;;;5019035;28;20070;-81
2021/09/11 12:20:25;;;;;;;5.55;2.72;;;26.50;62.20;;;;;;5029879;28;20041;-89
2021/09/11 12:23:06;;;;;;;5.68;3.85;;;26.60;62.00;;;;;;5011467;28;20512;-81
2021/09/11 12:26:02;;;;;;;15.63;14.27;;;26.60;61.50;;;;;;5029817;28;20037;-81
2021/09/11 12:28:52;;;;;;;9.38;8.48;;;26.70;60.90;;;;;;5010247;28;20037;-82
2021/09/11 12:31:18;;;;;;;11.50;8.20;;;26.70;60.40;;;;;;5012877;28;20025;-80
2021/09/11 12:33:51;;;;;;;5.65;2.72;;;26.70;60.60;;;;;;5029042;28;20029;-88
2021/09/11 12:36:17;;;;;;;6.57;2.30;;;26.70;59.80;;;;;;5012406;28;20025;-86
2021/09/11 12:38:43;;;;;;;5.35;2.40;;;26.70;59.10;;;;;;5011916;28;20037;-85
2021/09/11 12:41:09;;;;;;;5.88;2.20;;;26.60;58.30;;;;;;5011365;28;20030;-83
2021/09/11 12:43:35;;;;;;;6.32;2.53;;;26.60;57.90;;;;;;4995072;28;20029;-83
2021/09/11 12:46:01;;;;;;;6.90;2.10;;;26.50;57.50;;;;;;5010830;28;20037;-83
2021/09/11 12:48:27;;;;;;;7.35;2.25;;;26.50;57.10;;;;;;5028644;28;20644;-84